Time;durP1;ratioP1;P1;durP2;ratioP2;P2;SDS_P1;SDS_P2;PMS_P1;PMS_P2;Temp;Humidity;BMP_temperature;BMP_pressure;BME280_temperature;BME280_humidity;BME280_pressure;Samples;Min_cycle;Max_cycle;Signal;HPM_P1;HPM_P2
2022/11/10 00:03:35;;;;;;;1.27;0.50;;;;;;;19.07;50.30;101702.56;16123292;19;128989;-41
2022/11/10 00:08:57;;;;;;;2.05;0.38;;;;;;;19.05;50.16;101713.91;16121679;19;130349;-40
2022/11/10 00:19:59;;;;;;;2.20;0.93;;;;;;;19.01;49.93;101720.97;16123496;19;129367;-41
2022/11/10 00:25:22;;;;;;;4.82;0.80;;;;;;;19.01;50.04;101714.59;16136290;19;130337;-40
2022/11/10 00:30:43;;;;;;;2.47;0.40;;;;;;;18.99;50.08;101728.66;16135331;19;130280;-40
2022/11/10 00:36:07;;;;;;;1.60;0.43;;;;;;;18.97;50.39;101733.59;16137101;19;129686;-40
2022/11/10 00:41:29;;;;;;;1.00;0.40;;;;;;;18.96;50.13;101739.38;16136398;19;129788;-39
2022/11/10 00:46:51;;;;;;;1.67;0.50;;;;;;;18.93;50.30;101732.38;16131466;19;129447;-41
2022/11/10 00:52:12;;;;;;;2.55;0.60;;;;;;;18.91;50.39;101737.28;16135439;19;129152;-40
2022/11/10 00:57:34;;;;;;;2.78;0.65;;;;;;;18.91;50.12;101748.38;16132770;19;129423;-41
2022/11/10 01:02:56;;;;;;;3.08;0.50;;;;;;;18.89;50.32;101751.38;16134163;19;129614;-41
2022/11/10 01:08:18;;;;;;;2.17;0.57;;;;;;;18.87;49.96;101748.00;16131507;19;129703;-41
2022/11/10 01:13:40;;;;;;;4.63;1.20;;;;;;;18.86;49.77;101753.75;16126145;19;129747;-41
2022/11/10 01:19:03;;;;;;;3.50;0.45;;;;;;;18.85;50.24;101754.81;16127976;19;133777;-40
2022/11/10 01:24:26;;;;;;;4.38;0.60;;;;;;;18.83;49.96;101762.53;16125734;19;131219;-39
2022/11/10 01:29:47;;;;;;;1.95;0.50;;;;;;;18.82;50.05;101772.78;16125495;19;129499;-41
2022/11/10 01:35:09;;;;;;;1.95;0.50;;;;;;;18.81;50.03;101782.16;16124600;19;129418;-41
2022/11/10 01:40:31;;;;;;;0.85;0.30;;;;;;;18.80;50.01;101793.47;16122775;19;129639;-40
2022/11/10 01:45:59;;;;;;;1.85;0.52;;;;;;;18.79;50.07;101789.84;16127368;19;129796;-40
2022/11/10 01:51:40;;;;;;;2.67;0.77;;;;;;;18.78;49.85;101782.59;16121771;19;130551;-40
2022/11/10 01:57:05;;;;;;;1.95;0.50;;;;;;;18.74;50.32;101787.75;16125334;19;129469;-41
2022/11/10 02:02:36;;;;;;;;;;;;;;;18.70;49.95;101789.31;16125636;19;129608;-41
2022/11/10 02:07:59;;;;;;;1.45;0.50;;;;;;;18.71;49.74;101785.44;15975187;19;2938812;-42
2022/11/10 02:13:21;;;;;;;1.95;0.40;;;;;;;18.71;50.21;101788.19;16129515;19;129249;-41
2022/11/10 02:18:43;;;;;;;2.00;0.50;;;;;;;18.70;50.02;101781.00;16127181;19;129450;-39
2022/11/10 02:24:05;;;;;;;2.22;0.63;;;;;;;18.69;49.97;101795.91;16128324;19;129499;-41
2022/11/10 02:29:26;;;;;;;1.85;0.52;;;;;;;18.68;50.12;101802.53;16127596;19;129768;-43
2022/11/10 02:34:48;;;;;;;2.65;0.47;;;;;;;18.67;49.80;101797.19;16126550;19;129794;-40
2022/11/10 02:40:10;;;;;;;2.17;0.57;;;;;;;18.66;49.65;101806.59;16130210;19;131515;-41
2022/11/10 02:45:32;;;;;;;2.45;0.57;;;;;;;18.67;49.65;101802.75;16125490;19;130787;-40
2022/11/10 02:50:54;;;;;;;0.98;0.40;;;;;;;18.65;50.09;101816.84;16128970;19;130132;-40
2022/11/10 02:56:15;;;;;;;1.15;0.45;;;;;;;18.64;49.72;101820.69;16129941;19;129621;-41
2022/11/10 03:01:37;;;;;;;2.28;0.60;;;;;;;18.63;50.00;101835.59;16124358;19;130905;-39
2022/11/10 03:06:59;;;;;;;1.45;0.57;;;;;;;18.63;49.96;101832.84;16124822;19;129452;-42
2022/11/10 03:12:21;;;;;;;1.13;0.50;;;;;;;18.61;49.58;101848.84;16125588;19;129706;-41
2022/11/10 03:17:43;;;;;;;0.90;0.40;;;;;;;18.61;49.45;101857.16;16123901;19;129681;-41
2022/11/10 03:23:04;;;;;;;1.65;0.60;;;;;;;18.60;49.82;101858.22;16122217;19;129536;-42
2022/11/10 03:28:26;;;;;;;1.65;0.50;;;;;;;18.58;49.41;101874.25;16123016;19;129667;-42
2022/11/10 03:33:48;;;;;;;1.90;0.50;;;;;;;18.57;49.48;101875.31;16121474;19;129950;-42
2022/11/10 03:39:09;;;;;;;2.45;0.80;;;;;;;18.56;49.80;101896.63;16123458;19;129520;-42
2022/11/10 03:44:31;;;;;;;0.88;0.50;;;;;;;18.56;49.69;101898.56;16122247;19;129465;-42
2022/11/10 03:49:53;;;;;;;0.88;0.50;;;;;;;18.55;49.91;101911.53;16123152;19;129024;-41
2022/11/10 03:55:17;;;;;;;2.00;0.55;;;;;;;18.56;49.58;101929.03;16119863;19;129566;-42
2022/11/10 04:00:39;;;;;;;2.55;0.70;;;;;;;18.53;49.60;101919.22;16120499;19;129195;-42
2022/11/10 04:17:21;;;;;;;1.15;0.60;;;;;;;18.50;49.73;101932.69;16121624;19;129520;-42
2022/11/10 04:28:22;;;;;;;1.42;0.40;;;;;;;18.48;49.75;101954.22;16121434;19;131261;-42
2022/11/10 04:33:45;;;;;;;1.98;0.40;;;;;;;18.48;49.42;101952.31;16116546;19;129193;-41
2022/11/10 04:39:07;;;;;;;1.98;0.43;;;;;;;18.48;49.08;101962.53;16117385;19;130649;-42
2022/11/10 04:44:29;;;;;;;1.75;0.50;;;;;;;18.48;49.40;101965.28;16118770;19;129714;-41
2022/11/10 04:49:50;;;;;;;2.20;0.55;;;;;;;18.46;49.29;101980.22;16116740;19;129502;-42
2022/11/10 04:55:12;;;;;;;0.93;0.40;;;;;;;18.45;49.33;101989.63;16123774;19;129660;-43
2022/11/10 05:00:35;;;;;;;1.40;0.50;;;;;;;18.44;49.14;101996.22;16118573;19;129082;-34
2022/11/10 05:05:57;;;;;;;1.52;0.65;;;;;;;18.43;49.23;101991.75;16117890;19;134070;-34
2022/11/10 05:11:18;;;;;;;1.30;0.32;;;;;;;18.42;48.99;101978.97;16133218;19;129230;-37
2022/11/10 05:16:40;;;;;;;1.65;0.40;;;;;;;18.41;49.40;101988.34;16130130;19;129530;-34
2022/11/10 05:22:02;;;;;;;1.02;0.40;;;;;;;18.39;49.42;101996.03;16129516;19;135065;-34
2022/11/10 05:27:24;;;;;;;2.70;0.60;;;;;;;18.40;49.21;102017.13;16129242;19;129494;-41
2022/11/10 05:32:45;;;;;;;1.77;0.47;;;;;;;18.38;49.24;102019.22;16127940;19;129258;-34
2022/11/10 05:38:07;;;;;;;1.40;0.50;;;;;;;18.37;49.41;102023.06;16128323;19;129648;-34
2022/11/10 05:43:29;;;;;;;0.90;0.30;;;;;;;18.37;49.20;102020.28;16127709;19;129581;-34
2022/11/10 05:48:50;;;;;;;1.20;0.47;;;;;;;18.37;49.06;102019.47;16127369;19;130462;-36
2022/11/10 05:54:12;;;;;;;1.52;0.50;;;;;;;18.35;49.33;102014.13;16127957;19;129536;-37
2022/11/10 05:59:34;;;;;;;1.88;0.60;;;;;;;18.34;49.17;102023.50;16127577;19;129851;-34
2022/11/10 06:04:55;;;;;;;1.15;0.40;;;;;;;18.34;48.99;102040.13;16128148;19;130663;-42
2022/11/10 06:10:18;;;;;;;1.08;0.50;;;;;;;18.35;49.04;102041.81;16128042;19;131187;-38
2022/11/10 06:15:39;;;;;;;0.85;0.32;;;;;;;18.35;49.15;102052.91;16125463;19;129149;-36
2022/11/10 06:21:06;;;;;;;1.02;0.30;;;;;;;18.35;49.38;102049.28;16116286;19;131177;-34
2022/11/10 06:26:28;;;;;;;1.30;0.40;;;;;;;18.36;49.33;102068.47;16125928;19;129605;-34
2022/11/10 06:31:50;;;;;;;1.35;0.30;;;;;;;18.36;49.20;102075.94;16123659;19;130778;-34
2022/11/10 06:37:12;;;;;;;2.15;0.60;;;;;;;18.35;48.84;102080.59;16124050;19;129640;-42
2022/11/10 06:42:34;;;;;;;2.65;0.50;;;;;;;18.36;48.85;102089.78;16119590;19;129663;-34
2022/11/10 06:48:14;;;;;;;2.53;0.30;;;;;;;18.37;48.87;102110.88;16121520;19;130407;-33
2022/11/10 06:53:36;;;;;;;1.88;0.50;;;;;;;18.34;48.82;102112.16;16119807;19;129402;-33
2022/11/10 06:58:57;;;;;;;7.43;0.70;;;;;;;18.34;48.85;102122.38;16120975;19;132655;-34
2022/11/10 07:04:19;;;;;;;1.65;0.30;;;;;;;18.41;48.79;102126.03;16125580;19;130368;-36
2022/11/10 07:09:41;;;;;;;1.90;0.40;;;;;;;18.44;49.12;102136.69;16124269;19;130896;-35
2022/11/10 07:15:04;;;;;;;2.60;0.70;;;;;;;18.58;48.58;102143.06;16123969;19;129719;-34
2022/11/10 07:20:27;;;;;;;4.68;0.47;;;;;;;18.97;48.16;102145.94;16122598;19;130575;-34
2022/11/10 07:25:49;;;;;;;4.70;0.70;;;;;;;19.13;47.57;102139.03;16122295;19;129503;-35
2022/11/10 07:31:10;;;;;;;1.80;0.57;;;;;;;19.35;47.06;102154.31;16122010;19;129495;-37
2022/11/10 07:36:32;;;;;;;1.73;0.38;;;;;;;19.78;46.43;102179.72;16124019;19;129424;-34
2022/11/10 07:41:54;;;;;;;4.45;0.73;;;;;;;19.82;45.91;102187.38;16123216;19;129619;-34
2022/11/10 07:47:16;;;;;;;2.13;0.50;;;;;;;19.94;45.68;102184.72;16122857;19;129467;-41
2022/11/10 07:52:37;;;;;;;4.00;0.75;;;;;;;20.37;44.75;102196.16;16124869;19;130962;-38
2022/11/10 07:57:59;;;;;;;7.50;0.60;;;;;;;20.42;44.61;102193.56;16124982;19;129516;-43
2022/11/10 08:03:21;;;;;;;6.60;0.75;;;;;;;20.23;44.62;102199.06;16124543;19;129738;-34
2022/11/10 08:08:46;;;;;;;2.42;0.45;;;;;;;19.79;45.72;102198.06;16120990;19;129700;-34
2022/11/10 08:14:08;;;;;;;5.85;0.77;;;;;;;19.73;45.87;102204.50;16123095;19;129663;-41
2022/11/10 08:19:30;;;;;;;2.50;0.60;;;;;;;20.32;44.59;102219.09;16123613;19;129359;-34
2022/11/10 08:24:51;;;;;;;2.03;0.55;;;;;;;20.02;45.12;102235.56;16122535;19;131211;-37
2022/11/10 08:30:13;;;;;;;4.57;0.80;;;;;;;19.66;45.35;102244.28;16118893;19;129372;-38
2022/11/10 08:35:38;;;;;;;5.72;0.85;;;;;;;19.42;45.93;102232.00;16118739;19;130181;-34
2022/11/10 08:41:00;;;;;;;3.90;0.90;;;;;;;19.24;46.29;102223.53;16120057;19;129275;-36
2022/11/10 08:46:21;;;;;;;4.28;0.60;;;;;;;19.12;46.40;102245.50;16134772;19;130848;-39
2022/11/10 08:51:43;;;;;;;2.75;0.70;;;;;;;19.02;46.84;102260.69;16134419;19;129995;-45
2022/11/10 08:57:04;;;;;;;2.88;0.63;;;;;;;18.95;47.08;102265.41;16134790;19;129287;-34
2022/11/10 09:02:26;;;;;;;3.67;0.50;;;;;;;18.88;46.60;102264.56;16135380;19;130687;-34
2022/11/10 09:07:49;;;;;;;1.67;0.50;;;;;;;18.84;46.82;102275.22;16132371;19;129552;-43
2022/11/10 09:13:13;;;;;;;3.28;0.50;;;;;;;18.79;46.85;102282.47;16136035;19;131027;-40
2022/11/10 09:18:35;;;;;;;0.90;0.50;;;;;;;18.76;46.98;102295.69;16132005;19;129784;-37
2022/11/10 09:23:57;;;;;;;3.08;0.55;;;;;;;18.71;46.97;102301.03;16133835;19;131537;-36
2022/11/10 09:29:19;;;;;;;3.65;0.80;;;;;;;18.68;47.53;102308.91;16129953;19;129986;-34
2022/11/10 09:34:42;;;;;;;5.47;0.85;;;;;;;18.65;47.31;102304.66;16131027;19;129997;-35
2022/11/10 09:40:16;;;;;;;4.95;1.15;;;;;;;18.63;47.13;102306.78;16130671;19;129756;-34
2022/11/10 09:45:42;;;;;;;5.18;0.77;;;;;;;18.59;47.52;102294.41;16131323;19;130352;-34
2022/11/10 09:51:18;;;;;;;6.68;1.13;;;;;;;18.58;47.57;102292.72;16130042;19;129423;-34
2022/11/10 09:56:40;;;;;;;2.78;0.73;;;;;;;18.54;47.62;102288.66;16129252;19;130706;-33
2022/11/10 10:02:39;;;;;;;5.38;0.95;;;;;;;18.53;47.52;102296.13;16130663;19;129532;-36
2022/11/10 10:08:05;;;;;;;6.97;0.98;;;;;;;18.50;47.35;102295.69;16129565;19;129664;-34
2022/11/10 10:13:35;;;;;;;7.22;1.52;;;;;;;18.51;47.08;102291.84;16131241;19;129793;-34
2022/11/10 10:19:15;;;;;;;6.60;0.98;;;;;;;18.50;47.35;102295.69;16129728;19;134694;-33
2022/11/10 10:24:38;;;;;;;5.82;1.00;;;;;;;18.48;47.55;102314.44;16123868;19;135020;-33
2022/11/10 10:30:04;;;;;;;3.60;0.85;;;;;;;18.47;47.22;102308.06;16125853;19;129386;-34
2022/11/10 10:35:27;;;;;;;5.10;0.82;;;;;;;18.45;47.44;102316.59;16128208;19;131084;-33
2022/11/10 10:40:51;;;;;;;5.85;1.00;;;;;;;18.46;47.15;102334.06;16125406;19;128958;-34
2022/11/10 10:46:14;;;;;;;5.68;0.90;;;;;;;18.44;47.42;102342.59;16125503;19;129321;-33
2022/11/10 10:51:36;;;;;;;1.55;0.77;;;;;;;18.44;47.49;102348.16;16127967;19;130489;-33
2022/11/10 10:57:03;;;;;;;4.35;1.10;;;;;;;18.46;47.37;102361.78;16127128;19;129666;-34
2022/11/10 11:02:30;;;;;;;5.80;1.13;;;;;;;18.44;47.13;102363.91;16127115;19;129527;-34
2022/11/10 11:08:00;;;;;;;4.05;1.00;;;;;;;18.45;47.36;102376.69;16124429;19;129799;-33
2022/11/10 11:13:26;;;;;;;4.85;1.10;;;;;;;18.44;47.49;102367.53;16125799;19;129034;-33
2022/11/10 11:18:49;;;;;;;5.63;0.88;;;;;;;18.43;47.50;102367.72;16122345;19;129979;-34
2022/11/10 11:24:40;;;;;;;2.10;0.80;;;;;;;18.43;47.44;102351.97;16121088;19;129130;-33
2022/11/10 11:30:16;;;;;;;4.18;1.17;;;;;;;18.44;47.02;102364.78;16123194;19;129241;-34
2022/11/10 11:35:49;;;;;;;2.08;0.85;;;;;;;18.44;47.23;102364.78;16122730;19;133527;-33
2022/11/10 11:41:10;;;;;;;4.25;0.68;;;;;;;18.43;47.09;102379.69;16120460;19;129308;-33
2022/11/10 11:46:46;;;;;;;3.78;1.00;;;;;;;18.44;47.43;102384.16;16123035;19;129824;-34
2022/11/10 11:52:21;;;;;;;2.53;0.70;;;;;;;18.44;47.23;102391.59;16123840;19;129720;-33
2022/11/10 11:57:52;;;;;;;3.35;0.88;;;;;;;18.44;47.31;102395.25;16116551;19;133488;-34
2022/11/10 12:03:42;;;;;;;2.45;0.80;;;;;;;18.44;47.35;102405.47;16120947;19;130290;-33
2022/11/10 12:09:21;;;;;;;3.85;0.75;;;;;;;18.45;47.46;102415.50;16120888;19;129669;-34
2022/11/10 12:15:18;;;;;;;3.08;0.98;;;;;;;18.44;47.08;102414.66;16123812;19;130684;-34
2022/11/10 12:20:43;;;;;;;2.17;0.80;;;;;;;18.44;47.47;102419.31;16138574;19;129354;-33
2022/11/10 12:26:28;;;;;;;3.10;1.07;;;;;;;18.43;47.08;102423.16;16136822;19;129713;-33
2022/11/10 12:31:53;;;;;;;2.20;0.70;;;;;;;18.43;47.14;102420.38;16133677;19;129083;-34
2022/11/10 12:37:27;;;;;;;4.65;0.88;;;;;;;18.42;47.50;102427.84;16138728;19;129124;-34
2022/11/10 12:42:58;;;;;;;3.13;0.90;;;;;;;18.42;47.33;102416.75;16135486;19;129545;-34
2022/11/10 12:48:21;;;;;;;2.65;0.65;;;;;;;18.42;47.31;102430.63;16135888;19;129742;-33
2022/11/10 12:53:45;;;;;;;1.80;0.60;;;;;;;18.42;47.37;102430.63;16135514;19;129774;-41
2022/11/10 12:59:19;;;;;;;6.32;0.70;;;;;;;18.43;47.08;102432.34;16133325;19;129827;-34
2022/11/10 13:04:41;;;;;;;1.58;0.70;;;;;;;18.41;47.04;102430.81;16134613;19;129050;-33
2022/11/10 13:10:17;;;;;;;2.25;0.75;;;;;;;18.42;47.07;102438.06;16133591;19;135418;-34
2022/11/10 13:15:46;;;;;;;2.30;0.80;;;;;;;18.41;47.32;102434.44;16131238;19;130013;-33
2022/11/10 13:21:07;;;;;;;2.28;0.77;;;;;;;18.39;47.32;102422.72;16131939;19;129520;-33
2022/11/10 13:26:38;;;;;;;2.13;0.80;;;;;;;18.41;46.86;102430.81;16129590;19;130717;-34
2022/11/10 13:32:06;;;;;;;1.45;0.70;;;;;;;18.39;46.79;102439.34;16131327;19;129575;-33
2022/11/10 13:37:33;;;;;;;3.33;0.70;;;;;;;18.39;47.12;102444.00;16133068;19;130385;-34
2022/11/10 13:42:58;;;;;;;3.55;0.77;;;;;;;18.38;46.87;102442.31;16131229;19;129515;-33
2022/11/10 13:48:27;;;;;;;3.10;0.60;;;;;;;18.38;46.80;102431.22;16129746;19;129590;-33
2022/11/10 13:54:10;;;;;;;2.60;0.75;;;;;;;18.40;47.11;102420.81;16126693;19;129076;-33
2022/11/10 13:59:44;;;;;;;2.13;0.50;;;;;;;18.38;47.03;102420.13;16129930;19;129222;-33
2022/11/10 14:05:08;;;;;;;1.13;0.35;;;;;;;18.36;47.13;102414.78;16128588;19;130187;-33
2022/11/10 14:10:54;;;;;;;0.85;0.40;;;;;;;18.37;46.70;102430.34;16128341;19;129575;-34
2022/11/10 14:16:22;;;;;;;3.53;0.60;;;;;;;18.36;46.85;102434.19;16129165;19;129291;-33
2022/11/10 14:21:58;;;;;;;1.52;0.50;;;;;;;18.37;46.79;102444.19;16127616;19;129791;-33
2022/11/10 14:27:26;;;;;;;2.05;0.60;;;;;;;18.35;46.87;102442.72;16128317;19;130286;-33
2022/11/10 14:33:05;;;;;;;1.55;0.50;;;;;;;18.36;46.93;102436.09;16126469;19;130135;-33
2022/11/10 14:38:32;;;;;;;2.20;0.68;;;;;;;18.33;46.72;102422.66;16127666;19;129553;-34
2022/11/10 14:44:11;;;;;;;1.70;0.68;;;;;;;18.32;46.89;102419.06;16128783;19;129401;-33
2022/11/10 14:49:33;;;;;;;1.60;0.43;;;;;;;18.30;47.16;102410.94;16128032;19;130232;-33
2022/11/10 14:54:55;;;;;;;2.33;0.50;;;;;;;18.30;47.09;102419.25;16128475;19;129519;-33
2022/11/10 15:00:22;;;;;;;1.05;0.50;;;;;;;18.29;46.75;102430.53;16129035;19;129622;-33
2022/11/10 15:05:47;;;;;;;1.75;0.60;;;;;;;18.29;46.89;102444.41;16124048;19;129808;-33
2022/11/10 15:11:39;;;;;;;2.08;0.50;;;;;;;18.29;47.12;102452.69;16124193;19;129441;-33
2022/11/10 15:17:02;;;;;;;2.13;0.75;;;;;;;18.25;47.15;102459.72;16125862;19;130665;-33
2022/11/10 15:22:34;;;;;;;1.52;0.50;;;;;;;18.27;46.81;102463.13;16123897;19;129449;-34
2022/11/10 15:28:03;;;;;;;1.80;0.60;;;;;;;18.25;47.04;102470.78;16125640;19;130383;-33
2022/11/10 15:33:28;;;;;;;0.77;0.35;;;;;;;18.24;46.99;102481.03;16122876;19;129558;-34
2022/11/10 15:39:26;;;;;;;0.50;0.30;;;;;;;18.22;47.14;102480.38;16121828;19;130381;-33
2022/11/10 15:44:48;;;;;;;0.80;0.40;;;;;;;18.22;47.05;102485.91;16112011;19;130418;-33
2022/11/10 15:50:11;;;;;;;0.93;0.40;;;;;;;18.22;47.15;102493.34;16110050;19;129628;-34
2022/11/10 15:55:34;;;;;;;1.63;0.60;;;;;;;18.21;47.02;102497.22;16111424;19;130635;-33
2022/11/10 16:00:56;;;;;;;1.38;0.30;;;;;;;18.21;46.88;102491.69;16111557;19;129700;-34
2022/11/10 16:06:17;;;;;;;0.40;0.25;;;;;;;18.20;46.65;102501.03;16111773;19;130659;-33
2022/11/10 16:11:43;;;;;;;1.75;0.55;;;;;;;18.19;46.59;102510.41;16111876;19;129230;-33
2022/11/10 16:17:07;;;;;;;1.33;0.47;;;;;;;18.18;46.76;102519.78;16119277;19;129993;-33
2022/11/10 16:22:29;;;;;;;1.98;0.47;;;;;;;18.18;47.00;102505.94;16121401;19;129621;-40
2022/11/10 16:27:51;;;;;;;1.95;0.40;;;;;;;18.15;47.04;102505.28;16118533;19;129355;-33
2022/11/10 16:33:15;;;;;;;0.73;0.40;;;;;;;18.17;47.02;102506.97;16119966;19;130202;-33
2022/11/10 16:38:37;;;;;;;1.02;0.52;;;;;;;18.15;46.82;102516.34;16118791;19;129751;-33
2022/11/10 16:43:58;;;;;;;2.00;0.55;;;;;;;18.15;46.97;102519.13;16119064;19;129572;-34
2022/11/10 16:49:34;;;;;;;2.55;0.50;;;;;;;18.14;46.37;102530.41;16120788;19;130182;-33
2022/11/10 16:54:56;;;;;;;4.00;0.68;;;;;;;18.13;46.47;102540.63;16118403;19;129767;-33
2022/11/10 17:00:18;;;;;;;2.55;0.50;;;;;;;18.14;46.85;102547.88;16117902;19;130762;-36
2022/11/10 17:05:40;;;;;;;2.60;0.50;;;;;;;18.11;46.77;102542.72;16127905;19;130397;-33
2022/11/10 17:11:02;;;;;;;3.60;0.60;;;;;;;18.11;46.94;102562.13;16132146;19;130040;-33
2022/11/10 17:16:37;;;;;;;4.28;0.80;;;;;;;18.13;47.04;102573.88;16129551;19;130423;-33
2022/11/10 17:21:59;;;;;;;5.60;1.43;;;;;;;18.11;46.80;102578.75;16133310;19;129181;-42
2022/11/10 17:27:21;;;;;;;7.25;1.45;;;;;;;18.14;47.07;102591.34;16131726;19;129459;-41
2022/11/10 17:32:42;;;;;;;16.50;2.13;;;;;;;18.12;46.90;102586.00;16131096;19;130218;-42
2022/11/10 17:38:27;;;;;;;12.57;2.85;;;;;;;18.12;46.98;102583.22;16131531;19;129247;-41
2022/11/10 17:43:48;;;;;;;14.55;3.53;;;;;;;18.13;47.15;102573.88;16128992;19;129656;-41
2022/11/10 17:49:10;;;;;;;23.90;3.97;;;;;;;18.14;47.25;102575.56;16129455;19;129449;-41
2022/11/10 17:54:32;;;;;;;15.07;4.03;;;;;;;18.15;47.48;102582.00;16129446;19;129487;-42
2022/11/10 17:59:54;;;;;;;20.45;4.22;;;;;;;18.17;47.48;102590.09;16130295;19;130077;-42
2022/11/10 18:05:17;;;;;;;20.55;4.22;;;;;;;18.18;48.09;102591.78;16129636;19;129900;-41
2022/11/10 18:10:46;;;;;;;12.93;3.42;;;;;;;18.22;48.21;102604.16;16130940;19;129758;-42
2022/11/10 18:16:10;;;;;;;15.13;3.03;;;;;;;18.39;47.85;102613.91;16131322;19;129662;-40
2022/11/10 18:21:32;;;;;;;11.10;2.40;;;;;;;18.73;48.08;102614.94;16130980;19;129596;-42
2022/11/10 18:26:53;;;;;;;9.98;2.83;;;;;;;19.07;47.30;102610.41;16130229;19;131547;-43
2022/11/10 18:32:15;;;;;;;11.82;2.40;;;;;;;19.32;47.10;102614.56;16127674;19;129270;-43
2022/11/10 18:37:37;;;;;;;9.68;2.45;;;;;;;19.42;47.52;102619.72;16126956;19;130322;-42
2022/11/10 18:43:00;;;;;;;11.25;2.47;;;;;;;19.46;47.07;102619.06;16049074;19;146967;-40
2022/11/10 18:48:27;;;;;;;8.80;2.25;;;;;;;19.45;47.33;102613.72;16126825;19;129730;-43
2022/11/10 18:53:57;;;;;;;10.45;1.90;;;;;;;19.38;47.41;102603.47;16125200;19;130059;-44
2022/11/10 18:59:19;;;;;;;7.80;1.95;;;;;;;19.32;47.63;102609.84;16128175;19;129818;-43
2022/11/10 19:04:40;;;;;;;12.68;2.53;;;;;;;19.26;47.21;102610.69;16131037;19;129313;-43
2022/11/10 19:10:02;;;;;;;15.93;1.95;;;;;;;19.21;47.75;102613.22;16137958;19;129298;-43
2022/11/10 19:15:24;;;;;;;16.27;2.58;;;;;;;19.16;47.48;102613.81;16133828;19;129576;-44
2022/11/10 19:20:46;;;;;;;10.50;2.08;;;;;;;19.11;47.90;102613.63;16137762;19;130514;-43
2022/11/10 19:26:09;;;;;;;11.30;2.05;;;;;;;19.04;47.87;102608.03;16122664;19;129846;-44
2022/11/10 19:31:31;;;;;;;17.25;1.70;;;;;;;19.02;48.02;102618.50;16124476;19;129585;-43
2022/11/10 19:36:53;;;;;;;7.97;1.50;;;;;;;19.01;48.50;102619.56;16121761;19;129528;-43
2022/11/10 19:42:14;;;;;;;15.18;2.05;;;;;;;19.00;48.09;102630.88;16127462;19;129321;-43
2022/11/10 19:47:36;;;;;;;7.70;1.65;;;;;;;18.98;48.97;102636.59;16121516;19;131437;-43
2022/11/10 19:52:58;;;;;;;6.05;1.52;;;;;;;18.99;48.97;102640.25;16123772;19;134494;-43
2022/11/10 19:58:20;;;;;;;9.90;1.60;;;;;;;19.00;49.04;102639.19;16124763;19;129717;-43
2022/11/10 20:03:42;;;;;;;7.50;1.70;;;;;;;19.07;48.96;102660.34;16123696;19;130095;-43
2022/11/10 20:09:04;;;;;;;13.02;2.05;;;;;;;19.24;49.32;102664.69;16122699;19;128998;-43
2022/11/10 20:14:26;;;;;;;9.38;2.33;;;;;;;19.38;49.04;102670.06;16122246;19;129864;-43
2022/11/10 20:19:48;;;;;;;15.07;1.67;;;;;;;19.53;48.48;102671.81;16119846;19;131451;-43
2022/11/10 20:25:10;;;;;;;11.25;1.30;;;;;;;19.67;48.65;102668.00;16120203;19;130729;-45
2022/11/10 20:30:33;;;;;;;18.02;1.48;;;;;;;19.80;48.68;102671.88;16121517;19;129592;-43
2022/11/10 20:36:01;;;;;;;12.27;1.85;;;;;;;19.87;48.80;102677.44;16120824;19;130935;-43
2022/11/10 20:41:26;;;;;;;9.98;1.20;;;;;;;19.90;48.34;102694.53;16134089;19;132597;-43
2022/11/10 20:46:47;;;;;;;12.43;1.53;;;;;;;19.90;48.88;102711.19;16133630;19;129635;-42
2022/11/10 20:52:15;;;;;;;11.77;1.48;;;;;;;19.86;48.94;102707.13;16133269;19;129464;-43
2022/11/10 20:57:37;;;;;;;18.85;1.40;;;;;;;19.82;48.62;102700.28;16132989;19;129649;-43
2022/11/10 21:02:59;;;;;;;13.10;1.48;;;;;;;19.76;48.76;102687.25;16133099;19;129993;-43
2022/11/10 21:08:21;;;;;;;6.85;0.90;;;;;;;19.71;49.01;102687.00;16130228;19;129509;-42
2022/11/10 21:13:42;;;;;;;8.52;1.33;;;;;;;19.63;49.34;102676.97;16132880;19;129849;-43
2022/11/10 21:19:04;;;;;;;11.02;1.27;;;;;;;19.57;49.64;102698.06;16124232;19;130267;-43
2022/11/10 21:24:27;;;;;;;10.18;1.23;;;;;;;19.54;49.31;102695.75;16130190;19;131132;-43
2022/11/10 21:29:49;;;;;;;7.65;1.30;;;;;;;19.50;48.92;102691.66;16123855;19;129812;-43
2022/11/10 21:35:11;;;;;;;21.15;1.83;;;;;;;19.42;48.91;102697.41;16127389;19;130196;-43
2022/11/10 21:40:33;;;;;;;12.60;1.50;;;;;;;19.37;48.54;102698.88;16123843;19;130120;-43
2022/11/10 21:45:56;;;;;;;24.23;2.38;;;;;;;19.35;48.45;102698.25;16127257;19;130622;-43
2022/11/10 21:51:21;;;;;;;16.80;1.70;;;;;;;19.31;48.79;102707.19;16119781;19;129944;-43
2022/11/10 21:56:42;;;;;;;13.27;1.93;;;;;;;19.24;48.89;102712.72;16118668;19;129997;-42
2022/11/10 22:02:05;;;;;;;13.55;2.00;;;;;;;19.18;48.57;102719.06;16116174;19;130871;-42
2022/11/10 22:07:27;;;;;;;11.77;1.60;;;;;;;19.14;48.66;102728.84;16124439;19;129522;-43
2022/11/10 22:18:39;;;;;;;10.05;1.65;;;;;;;19.04;48.65;102729.22;16132209;19;129272;-43
2022/11/10 22:29:41;;;;;;;6.43;1.38;;;;;;;18.94;48.80;102751.81;16127873;19;129595;-44
2022/11/10 22:35:03;;;;;;;10.90;1.50;;;;;;;18.90;49.08;102773.53;16125120;19;130472;-41
2022/11/10 22:46:05;;;;;;;5.60;1.00;;;;;;;18.85;49.09;102786.28;16124927;19;130137;-42
2022/11/10 22:51:29;;;;;;;5.32;1.05;;;;;;;18.82;48.97;102795.03;16122150;19;129599;-43
2022/11/10 22:56:51;;;;;;;3.80;0.90;;;;;;;18.80;48.98;102799.91;16122652;19;129282;-42
2022/11/10 23:02:12;;;;;;;4.82;1.27;;;;;;;18.77;49.32;102802.03;16120424;19;129848;-42
2022/11/10 23:07:34;;;;;;;4.18;0.95;;;;;;;18.75;48.96;102798.59;16121353;19;129400;-43
2022/11/10 23:12:56;;;;;;;3.17;0.77;;;;;;;18.72;49.13;102809.25;16123502;19;130187;-43
2022/11/10 23:18:18;;;;;;;1.80;0.90;;;;;;;18.70;49.22;102834.41;16122468;19;130424;-42
2022/11/10 23:23:41;;;;;;;1.98;0.77;;;;;;;18.69;48.93;102837.34;16121072;19;129791;-42
2022/11/10 23:29:02;;;;;;;1.83;0.68;;;;;;;18.66;48.97;102844.16;16126544;19;130946;-42
2022/11/10 23:34:24;;;;;;;2.67;0.80;;;;;;;18.64;49.37;102832.41;16126062;19;129749;-43
2022/11/10 23:39:46;;;;;;;3.53;0.73;;;;;;;18.63;49.50;102832.63;16120025;19;129260;-42
2022/11/10 23:45:08;;;;;;;5.25;0.90;;;;;;;18.60;49.39;102817.22;16120358;19;129653;-42
2022/11/10 23:50:30;;;;;;;3.25;1.02;;;;;;;18.58;49.41;102830.47;16120796;19;129901;-43
2022/11/10 23:55:56;;;;;;;3.17;0.93;;;;;;;18.57;49.62;102812.09;16116847;19;129354;-43
